Terminal Aerodrome Forecast
Issued by NWS

Home | Current Version | Previous Version | Text Only | Print | Product List | Glossary On
Versions: 1 2 3 4 5 6 7 8 9 10 11 12 13 14 15 16 17 18 19 20 21 22 23 24 25 26 27 28 29 30
000
FTUS45 KGGW 232300
TAFOLF
TAF
KOLF 232320Z 2400/2424 11016G25KT P6SM SCT160
     FM240230 11015G25KT P6SM VCTS SCT100CB
     FM241200 10009KT P6SM FEW220
     FM241800 VRB05KT P6SM VCSH SCT190=

USA.gov is the U.S. government's official web portal to all federal, state and local government web resources and services.